Flight Track Log - Related Links

Times and Time Zones

All times are in EST time to prevent confusion due to time zone crossing. See the FLG3861 flight status page for this flight to view local times or setup timezone preferences in your user account.

Time Position Orientation Groundspeed Altitude Reporting Facility
EST Latitude Longitude Course Direction KTS MPH feet Rate Location/Type
Mon 21:53:46 42.2050 -83.3528 177° South 153 176 1,300  Level Cleveland Center
Mon 21:54:40 42.1614 -83.3494 177° South 206 237 3,300 2,118 Climbing Cleveland Center
Mon 21:55:11 42.1344 -83.3453 173° South 203 234 4,300 2,418 Climbing Cleveland Center
Mon 21:55:47 42.0892 -83.3339 169° South 261 300 6,000 2,516 Climbing Cleveland Center
Mon 21:56:13 42.0694 -83.3006 129° Southeast 269 310 6,900 2,000 Climbing Cleveland Center
Mon 21:57:14 42.0825 -83.2044 80° East 279 321 8,900 1,770 Climbing Cleveland Center
Mon 21:58:15 42.1267 -83.1094 58° Northeast 301 346 10,500 1,512 Climbing Cleveland Center
Mon 21:59:17 42.1742 -83.0050 58° Northeast 327 376 12,000 1,317 Climbing Cleveland Center
Mon 22:00:18 42.2244 -82.8936 59° Northeast 348 400 13,200 1,512 Climbing Cleveland Center
Mon 22:01:20 42.2803 -82.7436 63° Northeast 384 442 15,100 1,707 Climbing Cleveland Center
Mon 22:02:21 42.2797 -82.5894 90° East 409 471 16,700 1,279 Climbing Cleveland Center
Mon 22:03:22 42.2778 -82.4278 91° East 427 491 17,700 1,073 Climbing Cleveland Center
Mon 22:04:24 42.2750 -82.2572 91° East 448 516 18,900 1,171 Climbing Cleveland Center
Mon 22:05:25 42.2731 -82.0883 91° East 460 529 20,100 1,180 Climbing Cleveland Center
Mon 22:06:26 42.2697 -81.9106 91° East 467 537 21,300 1,171 Climbing Cleveland Center
Mon 22:07:28 42.2669 -81.7325 91° East 469 540 22,500 1,073 Climbing Cleveland Center
Mon 22:08:29 42.2639 -81.5519 91° East 474 545 23,500 934 Climbing Cleveland Center
Mon 22:09:30 42.2642 -81.3692 90° East 479 551 24,400 836 Climbing Cleveland Center
Mon 22:10:31 42.2669 -81.1844 89° East 486 559 25,200 829 Climbing Cleveland Center
Mon 22:11:33 42.2692 -80.9681 89° East 488 562 26,100 780 Climbing Cleveland Center
Mon 22:12:34 42.2708 -80.7803 89° East 493 567 26,800 439 Climbing Cleveland Center
Mon 22:13:36 42.2733 -80.5900 89° East 499 574 27,000 98 Climbing Cleveland Center
Mon 22:14:37 42.2739 -80.3922 90° East 518 596 27,000  Level Cleveland Center
Mon 22:15:38 42.2747 -80.1894 90° East 532 612 27,000  Level Cleveland Center
Mon 22:16:40 42.2756 -79.9731 90° East 542 624 27,000  Level Cleveland Center
Mon 22:17:41 42.2753 -79.7653 90° East 540 621 27,000  Level Cleveland Center
Mon 22:18:42 42.2742 -79.5631 90° East 541 623 27,000  Level Cleveland Center
Mon 22:19:44 42.2736 -79.3622 90° East 540 621 27,000  Level Cleveland Center
Mon 22:20:45 42.2722 -79.1611 90° East 539 620 27,000  Level Cleveland Center
Mon 22:21:46 42.2706 -78.9600 91° East 538 619 27,000  Level Cleveland Center
Mon 22:22:47 42.2694 -78.7756 90° East 534 615 27,000  Level Cleveland Center
Mon 22:23:49 42.2675 -78.5378 91° East 531 611 27,000  Level Cleveland Center
Mon 22:24:50 42.2642 -78.3394 91° East 531 611 27,000  Level Cleveland Center
Mon 22:25:51 42.2617 -78.1428 91° East 530 610 27,000  Level Cleveland Center
Mon 22:26:52 42.2586 -77.9472 91° East 527 606 27,000 -195 Level Cleveland Center
Mon 22:27:54 42.2553 -77.7519 91° East 528 608 26,600 -927 Descending Cleveland Center
Mon 22:28:55 42.2508 -77.5556 92° East 530 610 25,100 -1,475 Descending Cleveland Center
Mon 22:29:56 42.2475 -77.3592 91° East 530 610 23,600 -1,672 Descending Cleveland Center
Mon 22:30:57 42.2411 -77.1256 92° East 526 605 21,700 -1,918 Descending Cleveland Center
Mon 22:31:58 42.2369 -76.9406 92° East 505 581 19,700 -1,967 Descending Cleveland Center
Mon 22:32:59 42.2331 -76.7694 92° East 464 534 17,700 -2,000 Descending Cleveland Center
Mon 22:34:01 42.2283 -76.6194 92° East 413 475 15,600 -2,244 Descending Cleveland Center
Mon 22:35:02 42.2236 -76.4778 93° East 386 444 13,100 -2,508 Descending Cleveland Center
Mon 22:36:03 42.2186 -76.3269 93° East 369 425 10,500 -2,115 Descending Cleveland Center
Mon 22:37:04 42.2167 -76.2117 91° East 317 365 8,800 -1,475 Descending Cleveland Center
Mon 22:38:05 42.1919 -76.1108 108° East 297 342 7,500 -1,328 Descending Cleveland Center
Mon 22:39:06 42.1347 -76.0325 135° Southeast 292 336 6,100 -1,349 Descending Cleveland Center
Mon 22:40:14 42.0706 -75.9533 138° Southeast 286 329 4,600 -1,031 Descending New Center
Mon 22:41:14 42.0017 -75.9061 153° Southeast 286 329 3,900 -350 Descending New Center
Mon 22:42:14 41.9656 -75.8306 123° Southeast 237 273 3,900  Level New Center
Mon 22:43:14 42.0078 -75.8172 13° North 101 116 3,900  Level New Center
Mon 22:44:14 42.0439 -75.8450 330° Northwest 101 116 3,900  Level New Center
Mon 22:45:14 42.0800 -75.8758 328° Northwest 133 153 3,900 -100 Level New Center
Mon 22:46:14 42.1142 -75.9036 329° Northwest 149 171 3,700 -400 Descending New Center
Mon 22:47:14 42.1403 -75.9281 325° Northwest 136 157 3,100 -650 Descending New Center
Mon 22:48:14 42.1706 -75.9500 332° Northwest 123 142 2,400 -700 Descending New Center

Login

Don't have an account? Register now (free) for customized features, flight alerts, and more!